Time;durP1;ratioP1;P1;durP2;ratioP2;P2;SDS_P1;SDS_P2;PMS_P1;PMS_P2;Temp;Humidity;BMP_temperature;BMP_pressure;BME280_temperature;BME280_humidity;BME280_pressure;Samples;Min_cycle;Max_cycle;Signal;HPM_P1;HPM_P2
2022/10/17 00:01:25;;;;;;;14.95;6.55;;;;;;;16.82;50.76;99913.53;4471998;32;20182;-85
2022/10/17 00:03:50;;;;;;;13.85;6.35;;;;;;;16.79;50.70;99909.22;4472074;32;20120;-85
2022/10/17 00:06:16;;;;;;;12.70;5.80;;;;;;;16.82;50.35;99910.88;4472168;32;20101;-85
2022/10/17 00:08:42;;;;;;;16.83;6.40;;;;;;;16.73;50.46;99903.41;4472040;32;20153;-84
2022/10/17 00:11:13;;;;;;;13.27;6.03;;;;;;;16.75;50.31;99906.88;4470953;32;20106;-84
2022/10/17 00:13:39;;;;;;;14.00;6.70;;;;;;;16.81;50.05;99909.13;4472431;32;20134;-85
2022/10/17 00:16:07;;;;;;;13.70;5.95;;;;;;;16.81;49.95;99906.47;4472225;32;20092;-84
2022/10/17 00:18:33;;;;;;;12.45;5.82;;;;;;;16.79;49.82;99909.22;4470867;32;20432;-85
2022/10/17 00:20:58;;;;;;;13.15;6.07;;;;;;;16.77;49.82;99911.13;4471998;32;20080;-85
2022/10/17 00:23:26;;;;;;;15.50;5.93;;;;;;;16.76;49.90;99911.22;4471570;32;20360;-85
2022/10/17 00:26:00;;;;;;;14.02;5.22;;;;;;;16.76;49.89;99911.22;4472026;32;20127;-84
2022/10/17 00:28:26;;;;;;;13.90;5.68;;;;;;;16.76;49.86;99912.06;4471086;32;20119;-84
2022/10/17 00:30:59;;;;;;;12.93;6.20;;;;;;;16.71;50.03;99911.53;4472305;32;20084;-85
2022/10/17 00:33:26;;;;;;;13.95;6.10;;;;;;;16.76;49.89;99908.56;4471061;32;20085;-85
2022/10/17 00:36:01;;;;;;;15.95;6.00;;;;;;;16.68;49.95;99909.87;4472227;32;20134;-86
2022/10/17 00:38:27;;;;;;;14.07;6.55;;;;;;;16.69;50.06;99911.59;4472302;32;20396;-86
2022/10/17 00:40:52;;;;;;;13.73;6.35;;;;;;;16.56;50.57;99912.47;4472171;32;20137;-85
2022/10/17 00:43:19;;;;;;;14.85;6.00;;;;;;;16.64;50.38;99915.50;4471575;32;20124;-84
2022/10/17 00:45:44;;;;;;;14.07;6.65;;;;;;;16.57;50.48;99917.66;4471951;32;20119;-84
2022/10/17 00:48:10;;;;;;;14.25;5.97;;;;;;;16.55;50.50;99914.25;4471895;32;20085;-84
2022/10/17 00:50:38;;;;;;;14.27;6.10;;;;;;;16.55;50.50;99914.25;4470948;32;20101;-84
2022/10/17 00:53:04;;;;;;;14.18;6.22;;;;;;;16.41;50.78;99912.44;4472094;32;20106;-86
2022/10/17 00:55:33;;;;;;;16.83;6.65;;;;;;;16.51;50.52;99910.94;4470760;32;20417;-87
2022/10/17 00:58:00;;;;;;;12.70;6.18;;;;;;;16.50;50.55;99917.19;4470876;32;20104;-87
2022/10/17 01:00:26;;;;;;;14.93;6.87;;;;;;;16.51;50.59;99902.97;4457469;32;20407;-84
2022/10/17 01:02:51;;;;;;;15.65;7.07;;;;;;;16.59;50.39;99910.47;4471511;32;20126;-85
2022/10/17 01:05:17;;;;;;;13.68;6.18;;;;;;;16.56;50.38;99902.66;4470463;32;20120;-85
2022/10/17 01:07:44;;;;;;;14.15;6.15;;;;;;;16.60;50.29;99906.00;4471661;32;20149;-85
2022/10/17 01:10:10;;;;;;;14.95;6.47;;;;;;;16.55;50.25;99900.09;4471727;32;20107;-87
2022/10/17 01:12:55;;;;;;;15.60;6.97;;;;;;;16.51;50.37;99904.75;4470407;32;20130;-87
2022/10/17 01:15:32;;;;;;;16.12;6.97;;;;;;;16.34;50.84;99908.47;4471496;32;20076;-85
2022/10/17 01:18:36;;;;;;;15.70;6.22;;;;;;;16.41;50.80;99907.13;4471775;32;20088;-84
2022/10/17 01:21:38;;;;;;;14.35;6.45;;;;;;;16.42;50.89;99905.34;4471925;32;20180;-84
2022/10/17 01:24:31;;;;;;;17.42;7.15;;;;;;;16.41;50.78;99903.59;4471737;32;20562;-85
2022/10/17 01:27:05;;;;;;;15.23;7.12;;;;;;;16.40;51.03;99902.75;4471585;32;20744;-84
2022/10/17 01:29:36;;;;;;;16.02;7.55;;;;;;;16.41;51.12;99908.94;4471719;32;20111;-85
2022/10/17 01:32:11;;;;;;;15.77;7.72;;;;;;;16.41;51.29;99906.28;4470576;32;20144;-84
2022/10/17 01:34:51;;;;;;;14.73;7.30;;;;;;;16.40;51.39;99900.09;4470242;32;20103;-84
2022/10/17 01:37:26;;;;;;;16.23;8.15;;;;;;;16.35;51.70;99893.34;4471239;32;20452;-84
2022/10/17 01:39:59;;;;;;;17.52;9.32;;;;;;;16.36;51.74;99898.59;4470303;32;20119;-85
2022/10/17 01:42:36;;;;;;;18.48;9.98;;;;;;;16.26;52.17;99898.28;4470123;32;20076;-85
2022/10/17 01:45:30;;;;;;;17.05;9.30;;;;;;;16.28;52.23;99901.72;4470172;32;20398;-86
2022/10/17 01:47:59;;;;;;;18.42;9.48;;;;;;;16.30;52.27;99897.16;4424864;32;20593;-86
2022/10/17 01:50:30;;;;;;;19.62;9.65;;;;;;;16.30;52.28;99899.81;4425351;32;20160;-86
2022/10/17 01:53:00;;;;;;;18.92;10.27;;;;;;;16.29;52.32;99903.41;4425379;32;20085;-86
2022/10/17 01:55:35;;;;;;;20.52;10.10;;;;;;;16.29;52.38;99902.56;4425305;32;20085;-86
2022/10/17 01:58:05;;;;;;;19.90;9.82;;;;;;;16.27;52.60;99915.09;4425371;32;20162;-86
2022/10/17 02:00:31;;;;;;;22.20;10.70;;;;;;;16.24;52.65;99909.94;4425576;32;20094;-85
2022/10/17 02:03:02;;;;;;;19.08;10.95;;;;;;;16.20;52.75;99916.41;4438196;32;20377;-84
2022/10/17 02:05:32;;;;;;;19.23;10.07;;;;;;;16.22;52.84;99909.19;4425496;32;20138;-84
2022/10/17 02:07:57;;;;;;;20.05;11.07;;;;;;;16.18;52.93;99913.81;4437945;32;20106;-85
2022/10/17 02:10:38;;;;;;;21.23;11.75;;;;;;;16.19;53.05;99914.69;4425116;32;20117;-85
2022/10/17 02:13:09;;;;;;;19.40;11.25;;;;;;;16.17;53.24;99912.13;4437953;32;20206;-84
2022/10/17 02:15:46;;;;;;;20.08;10.77;;;;;;;16.10;53.58;99908.13;4437929;32;20085;-86
2022/10/17 02:18:15;;;;;;;21.25;11.55;;;;;;;16.12;53.62;99907.06;4424909;32;20167;-85
2022/10/17 02:20:57;;;;;;;24.08;11.80;;;;;;;16.06;53.85;99907.44;4437834;32;20117;-86
2022/10/17 02:23:40;;;;;;;21.20;11.10;;;;;;;16.06;53.90;99906.59;4424947;32;20136;-86
2022/10/17 02:26:20;;;;;;;22.00;11.88;;;;;;;16.06;53.94;99915.41;4471083;32;20072;-86
2022/10/17 02:29:07;;;;;;;24.45;12.82;;;;;;;15.99;54.17;99916.72;4469970;32;20105;-86
2022/10/17 02:31:39;;;;;;;22.83;11.90;;;;;;;15.90;54.29;99917.28;4470958;32;20133;-86
2022/10/17 02:34:08;;;;;;;22.10;11.75;;;;;;;15.99;54.15;99922.03;4469797;32;20769;-86
2022/10/17 02:36:38;;;;;;;22.10;11.12;;;;;;;15.95;54.28;99924.97;4470835;32;20095;-86
2022/10/17 02:39:04;;;;;;;19.45;11.07;;;;;;;15.97;54.25;99925.72;4469751;32;20112;-86
2022/10/17 02:41:30;;;;;;;18.02;10.57;;;;;;;15.99;54.12;99921.19;4456695;32;20574;-87
2022/10/17 02:43:56;;;;;;;20.62;11.38;;;;;;;15.96;54.17;99927.53;4469563;32;20411;-86
2022/10/17 02:46:22;;;;;;;20.55;11.38;;;;;;;15.91;54.30;99926.94;4471397;32;20081;-86
2022/10/17 02:48:53;;;;;;;19.87;11.45;;;;;;;15.76;54.71;99930.50;4474663;32;20506;-86
2022/10/17 02:51:28;;;;;;;20.75;12.10;;;;;;;15.87;54.40;99928.06;4474901;32;20104;-85
2022/10/17 02:54:03;;;;;;;19.70;11.07;;;;;;;15.87;54.38;99934.22;4474858;32;20088;-88
2022/10/17 02:56:30;;;;;;;20.23;11.38;;;;;;;15.91;54.28;99935.75;4475987;32;20093;-88
2022/10/17 02:58:57;;;;;;;22.47;11.27;;;;;;;15.84;54.38;99936.22;4474708;32;20180;-89
2022/10/17 03:01:23;;;;;;;20.85;11.57;;;;;;;15.87;54.41;99934.22;4474954;32;20105;-88
2022/10/17 03:03:48;;;;;;;22.13;11.75;;;;;;;15.82;54.58;99935.44;4474572;32;20072;-88
2022/10/17 03:06:14;;;;;;;21.75;11.32;;;;;;;15.84;54.54;99941.53;4474520;32;20103;-88
2022/10/17 03:08:40;;;;;;;20.23;11.70;;;;;;;15.77;54.72;99945.50;4474471;32;20101;-87
2022/10/17 03:11:05;;;;;;;22.42;11.93;;;;;;;15.79;54.66;99936.50;4475594;32;20115;-87
2022/10/17 03:13:31;;;;;;;18.50;10.63;;;;;;;15.80;54.67;99940.87;4475643;32;20229;-87
2022/10/17 03:15:56;;;;;;;22.27;11.65;;;;;;;15.78;54.73;99940.09;4475591;32;20448;-86
2022/10/17 03:18:22;;;;;;;19.92;10.85;;;;;;;15.76;54.74;99942.00;4475590;32;20405;-87
2022/10/17 03:20:47;;;;;;;20.15;11.32;;;;;;;15.75;54.77;99947.37;4475551;32;20482;-87
2022/10/17 03:23:13;;;;;;;20.75;11.30;;;;;;;15.69;54.97;99952.06;4475488;32;20088;-87
2022/10/17 03:25:38;;;;;;;22.25;12.88;;;;;;;15.68;54.99;99952.16;4461202;32;20072;-87
2022/10/17 03:28:04;;;;;;;21.02;11.30;;;;;;;15.61;55.31;99958.78;4474361;32;20108;-87
2022/10/17 03:30:30;;;;;;;20.25;11.52;;;;;;;15.61;55.24;99961.44;4474097;32;20170;-86
2022/10/17 03:32:59;;;;;;;21.62;11.75;;;;;;;15.67;55.14;99969.06;4475358;32;20100;-87
2022/10/17 03:35:25;;;;;;;20.23;10.80;;;;;;;15.42;55.88;99965.09;4475265;32;20132;-87
2022/10/17 03:37:51;;;;;;;21.87;11.68;;;;;;;15.51;55.54;99963.72;4475289;32;20459;-87
2022/10/17 03:40:16;;;;;;;19.08;11.20;;;;;;;15.48;55.64;99969.22;4474101;32;20097;-87
2022/10/17 03:42:42;;;;;;;19.02;10.73;;;;;;;15.47;55.63;99971.03;4460880;32;20334;-87
2022/10/17 03:45:08;;;;;;;22.90;11.93;;;;;;;15.50;55.54;99973.50;4475196;32;20080;-86
2022/10/17 03:47:33;;;;;;;20.67;11.40;;;;;;;15.50;55.47;99976.16;4475215;32;20360;-89
2022/10/17 03:49:58;;;;;;;21.35;11.57;;;;;;;15.50;55.45;99981.47;4474978;32;20088;-88
2022/10/17 03:52:24;;;;;;;21.12;11.52;;;;;;;15.49;55.43;99979.75;4473872;32;20103;-88
2022/10/17 03:54:50;;;;;;;23.33;11.95;;;;;;;14.98;56.78;99984.31;4473836;32;20093;-88
2022/10/17 03:57:16;;;;;;;22.77;11.12;;;;;;;15.23;56.01;99983.84;4473751;32;20105;-87
2022/10/17 03:59:44;;;;;;;21.90;12.05;;;;;;;15.28;55.94;99984.47;4471925;32;20532;-87
2022/10/17 04:02:09;;;;;;;19.27;10.90;;;;;;;15.29;55.81;99988.81;4470968;32;20108;-87
2022/10/17 04:04:35;;;;;;;20.02;11.12;;;;;;;15.30;55.79;99979.06;4471255;32;20081;-87
2022/10/17 04:07:00;;;;;;;22.00;11.12;;;;;;;15.34;55.67;99986.78;4472161;32;20387;-87
2022/10/17 04:09:25;;;;;;;21.10;11.23;;;;;;;15.33;55.71;99986.84;4471186;32;20436;-87
2022/10/17 04:11:51;;;;;;;20.60;11.27;;;;;;;15.24;55.84;99985.56;4472257;32;20412;-88
2022/10/17 04:14:16;;;;;;;21.25;11.52;;;;;;;15.32;55.51;99991.31;4472014;32;20134;-87
2022/10/17 04:16:42;;;;;;;20.95;10.27;;;;;;;15.34;55.34;99997.41;4472340;32;20463;-87
2022/10/17 04:19:11;;;;;;;20.88;10.30;;;;;;;15.33;55.36;100000.97;4471155;32;20444;-87
2022/10/17 04:21:37;;;;;;;21.40;11.50;;;;;;;15.33;55.42;100000.97;4471019;32;20380;-87
2022/10/17 04:24:02;;;;;;;21.95;11.07;;;;;;;15.32;55.51;99996.62;4472173;32;20073;-87
2022/10/17 04:26:28;;;;;;;19.27;10.65;;;;;;;15.32;55.57;100006.41;4472047;32;20364;-87
2022/10/17 04:28:53;;;;;;;18.90;10.25;;;;;;;15.31;55.56;100007.31;4472084;32;20118;-87
2022/10/17 04:31:19;;;;;;;19.42;10.25;;;;;;;15.36;55.42;100009.75;4472169;32;20100;-88
2022/10/17 04:33:48;;;;;;;21.98;10.60;;;;;;;15.29;55.57;100004.75;4457328;32;20119;-87
2022/10/17 04:36:16;;;;;;;21.73;11.32;;;;;;;15.26;55.59;100004.94;4456534;32;20127;-87
2022/10/17 04:38:41;;;;;;;;;;;;;;;15.27;55.55;100009.28;4456914;32;20156;-87
2022/10/17 04:41:10;;;;;;;20.27;10.32;;;;;;;15.31;55.42;100004.66;4456512;32;20260;-86
2022/10/17 04:43:36;;;;;;;25.30;10.52;;;;;;;15.31;55.35;100007.31;4456339;32;20147;-87
2022/10/17 04:46:10;;;;;;;19.52;10.07;;;;;;;15.27;55.40;100011.09;4455218;32;20132;-88
2022/10/17 04:48:36;;;;;;;20.55;9.63;;;;;;;15.13;55.66;100014.50;4454959;32;20453;-88
2022/10/17 04:51:11;;;;;;;21.08;10.35;;;;;;;15.19;55.40;100010.66;4456473;32;20080;-88
2022/10/17 04:53:38;;;;;;;19.35;10.52;;;;;;;15.17;55.41;100016.03;4455295;32;20150;-88
2022/10/17 04:56:23;;;;;;;18.12;10.00;;;;;;;15.16;55.40;100024.06;4455025;32;20105;-88
2022/10/17 04:58:49;;;;;;;19.83;10.07;;;;;;;15.20;55.21;100023.84;4456293;32;20093;-89
2022/10/17 05:01:19;;;;;;;19.67;10.02;;;;;;;15.20;55.05;100028.28;4462232;32;20150;-88
2022/10/17 05:03:45;;;;;;;18.60;9.85;;;;;;;15.14;55.10;100022.38;4470377;32;20093;-89
2022/10/17 05:06:19;;;;;;;20.77;10.23;;;;;;;15.18;54.90;100030.16;4470414;32;20100;-88
2022/10/17 05:08:45;;;;;;;22.42;9.75;;;;;;;15.19;54.77;100024.78;4470629;32;20108;-87
2022/10/17 05:11:29;;;;;;;22.48;10.43;;;;;;;15.17;54.73;100026.66;4470375;32;20372;-86
2022/10/17 05:13:56;;;;;;;18.33;11.00;;;;;;;15.20;54.67;100022.97;4471678;32;20089;-86
2022/10/17 05:16:23;;;;;;;19.58;10.27;;;;;;;15.16;54.84;100026.72;4471471;32;20097;-86
2022/10/17 05:18:50;;;;;;;17.62;10.32;;;;;;;15.16;54.91;100032.88;4471675;32;20101;-86
2022/10/17 05:21:15;;;;;;;19.75;9.75;;;;;;;15.18;54.84;100040.78;4471624;32;20148;-87
2022/10/17 05:23:41;;;;;;;17.00;9.52;;;;;;;15.23;54.76;100034.28;4470216;32;20146;-87
2022/10/17 05:26:06;;;;;;;21.15;9.88;;;;;;;15.29;54.64;100039.25;4471425;32;20382;-87
2022/10/17 05:28:33;;;;;;;17.12;9.13;;;;;;;15.38;54.44;100045.88;4471363;32;20175;-87
2022/10/17 05:31:04;;;;;;;17.12;9.15;;;;;;;15.41;54.30;100051.00;4470296;32;20142;-84
2022/10/17 05:33:30;;;;;;;18.65;9.65;;;;;;;15.46;54.16;100054.28;4471410;32;20080;-84
2022/10/17 05:35:56;;;;;;;18.77;9.40;;;;;;;15.51;53.95;100065.53;4470137;32;20154;-85
2022/10/17 05:38:22;;;;;;;19.42;9.80;;;;;;;15.63;53.60;100055.16;4470331;32;20176;-85
2022/10/17 05:40:47;;;;;;;18.65;9.80;;;;;;;15.68;53.58;100051.31;4471376;32;20164;-85
2022/10/17 05:43:13;;;;;;;19.08;9.57;;;;;;;15.76;53.46;100063.34;4471146;32;20076;-86
2022/10/17 05:45:39;;;;;;;18.10;9.85;;;;;;;15.86;53.52;100065.41;4471288;32;20123;-85
2022/10/17 05:48:05;;;;;;;18.40;9.95;;;;;;;15.93;53.55;100065.91;4471298;32;20511;-83
2022/10/17 05:50:30;;;;;;;16.67;8.52;;;;;;;15.94;53.55;100064.97;4462113;32;20089;-81
2022/10/17 05:52:56;;;;;;;16.42;9.15;;;;;;;16.00;53.44;100080.56;4460969;32;20100;-82
2022/10/17 05:55:22;;;;;;;18.12;9.05;;;;;;;16.09;53.30;100082.72;4461210;32;20105;-82
2022/10/17 05:57:48;;;;;;;18.33;9.43;;;;;;;16.17;52.97;100084.94;4461672;32;20104;-82
2022/10/17 06:00:13;;;;;;;18.75;9.82;;;;;;;16.20;53.17;100079.41;4463635;32;20104;-82
2022/10/17 06:02:39;;;;;;;19.30;9.55;;;;;;;16.26;53.17;100086.19;4462313;32;20385;-81
2022/10/17 06:05:04;;;;;;;19.70;9.60;;;;;;;16.31;52.80;100087.66;4462681;32;20093;-82
2022/10/17 06:07:30;;;;;;;19.75;9.77;;;;;;;16.39;52.71;100089.88;4461197;32;20132;-82
2022/10/17 06:09:57;;;;;;;18.20;9.40;;;;;;;16.50;52.27;100098.09;4463676;32;20326;-82
2022/10/17 06:12:23;;;;;;;18.85;10.45;;;;;;;16.57;51.76;100097.72;4462425;32;20093;-82
2022/10/17 06:14:48;;;;;;;21.12;10.10;;;;;;;16.67;51.32;100098.91;4461921;32;20100;-83
2022/10/17 06:17:14;;;;;;;21.77;10.00;;;;;;;16.75;50.90;100098.47;4461778;32;20127;-82
2022/10/17 06:19:40;;;;;;;20.88;10.70;;;;;;;16.81;50.89;100103.41;4467459;32;20101;-84
2022/10/17 06:22:06;;;;;;;18.80;10.20;;;;;;;16.85;50.92;100107.63;4470319;32;20365;-87
2022/10/17 06:24:31;;;;;;;17.95;9.43;;;;;;;16.90;50.77;100109.06;4469818;32;20424;-81
2022/10/17 06:26:56;;;;;;;20.55;10.05;;;;;;;17.02;50.21;100112.81;4468380;32;20666;-88
2022/10/17 06:29:22;;;;;;;17.75;9.57;;;;;;;17.08;50.11;100114.25;4459292;32;20127;-92
2022/10/17 06:31:47;;;;;;;16.77;9.15;;;;;;;17.06;50.20;100116.16;4467140;32;20129;-93
2022/10/17 06:34:13;;;;;;;17.92;9.68;;;;;;;17.01;50.45;100118.22;4460825;32;20388;-93
2022/10/17 06:36:38;;;;;;;18.35;9.85;;;;;;;17.13;49.99;100119.28;4453346;32;20132;-92
2022/10/17 06:39:04;;;;;;;21.45;10.35;;;;;;;17.17;49.83;100126.13;4457577;32;20161;-91
2022/10/17 06:41:29;;;;;;;18.65;10.00;;;;;;;17.11;49.86;100135.34;4457756;32;20135;-93
2022/10/17 06:43:54;;;;;;;19.30;10.45;;;;;;;17.13;50.06;100136.09;4457067;32;20388;-92
2022/10/17 06:46:20;;;;;;;20.02;10.40;;;;;;;17.17;50.30;100140.31;4457068;32;20445;-85
2022/10/17 06:48:45;;;;;;;19.45;11.80;;;;;;;17.19;50.42;100137.53;4457207;32;20096;-84
2022/10/17 06:51:11;;;;;;;19.60;10.98;;;;;;;17.15;50.34;100144.84;4464368;32;20147;-83
2022/10/17 06:53:38;;;;;;;20.92;10.95;;;;;;;16.95;51.01;100142.53;4461605;32;20158;-87
2022/10/17 06:56:05;;;;;;;18.67;10.95;;;;;;;17.16;50.99;100151.06;4457086;32;20111;-86
2022/10/17 06:58:33;;;;;;;20.67;11.40;;;;;;;17.31;50.33;100152.81;4455423;32;20089;-87
2022/10/17 07:01:02;;;;;;;;;;;;;;;17.39;49.75;100153.19;4455521;32;20139;-86
2022/10/17 07:03:28;;;;;;;24.37;11.90;;;;;;;17.43;49.73;100152.03;4457898;32;19988;-86
2022/10/17 07:05:54;;;;;;;20.55;11.48;;;;;;;17.45;48.75;100143.97;4462141;32;20126;-85
2022/10/17 07:08:20;;;;;;;22.40;11.73;;;;;;;17.46;49.22;100161.63;4454215;32;20123;-87
2022/10/17 07:10:46;;;;;;;23.52;12.15;;;;;;;17.17;50.06;100153.63;4461694;32;20133;-85
2022/10/17 07:13:11;;;;;;;19.30;11.10;;;;;;;17.24;50.06;100165.63;4459916;32;20123;-87
2022/10/17 07:15:40;;;;;;;22.87;12.63;;;;;;;17.35;50.01;100164.97;4455083;32;20112;-87
2022/10/17 07:18:06;;;;;;;24.17;12.48;;;;;;;17.21;50.46;100167.59;4463007;32;20084;-87
2022/10/17 07:20:32;;;;;;;22.20;12.10;;;;;;;16.67;52.06;100170.75;4454970;32;20151;-88
2022/10/17 07:22:57;;;;;;;20.30;12.48;;;;;;;17.00;50.86;100165.28;4464516;32;20133;-88
2022/10/17 07:25:23;;;;;;;22.10;12.77;;;;;;;17.18;49.91;100166.00;4456943;32;20417;-87
2022/10/17 07:27:49;;;;;;;21.70;12.25;;;;;;;17.25;49.62;100171.81;4464566;32;20428;-84
2022/10/17 07:30:15;;;;;;;25.45;13.10;;;;;;;17.37;49.55;100164.88;4453014;32;20077;-85
2022/10/17 07:32:41;;;;;;;22.95;12.10;;;;;;;17.38;49.86;100169.25;4455392;32;20129;-83
2022/10/17 07:35:07;;;;;;;25.50;12.82;;;;;;;17.16;49.84;100172.37;4470508;32;20862;-82
2022/10/17 07:37:33;;;;;;;20.58;12.25;;;;;;;17.32;49.72;100170.47;4469938;32;20095;-84
2022/10/17 07:39:58;;;;;;;24.25;12.57;;;;;;;17.47;49.09;100177.53;4470637;32;20089;-84
2022/10/17 07:42:23;;;;;;;25.40;12.98;;;;;;;17.45;49.07;100176.78;4471069;32;20441;-84
2022/10/17 07:44:49;;;;;;;26.52;13.73;;;;;;;17.46;49.04;100177.62;4471180;32;20138;-84
2022/10/17 07:47:15;;;;;;;24.98;13.05;;;;;;;17.53;48.82;100176.31;4471249;32;20112;-84
2022/10/17 07:49:42;;;;;;;23.48;13.05;;;;;;;17.52;48.91;100179.06;4471036;32;20064;-84
2022/10/17 07:52:10;;;;;;;24.55;13.32;;;;;;;17.37;50.29;100179.06;4470587;32;20554;-84
2022/10/17 07:54:36;;;;;;;23.20;13.23;;;;;;;17.53;49.56;100175.47;4472092;32;20601;-83
2022/10/17 07:57:02;;;;;;;23.40;12.93;;;;;;;17.67;49.12;100173.66;4472031;32;20088;-83
2022/10/17 07:59:27;;;;;;;20.90;12.85;;;;;;;17.66;48.84;100181.75;4470818;32;20349;-84
2022/10/17 08:01:55;;;;;;;23.70;13.10;;;;;;;17.35;48.61;100185.44;4459102;32;20088;-83
2022/10/17 08:04:22;;;;;;;23.42;13.52;;;;;;;17.38;48.82;100186.06;4455296;32;20169;-84
2022/10/17 08:06:47;;;;;;;24.58;14.52;;;;;;;17.53;48.82;100181.62;4456633;32;20099;-84
2022/10/17 08:09:13;;;;;;;25.20;13.20;;;;;;;16.76;49.62;100194.16;4452513;32;20109;-82
2022/10/17 08:11:38;;;;;;;29.35;14.27;;;;;;;17.16;49.01;100202.50;4453590;32;20369;-84
2022/10/17 08:14:04;;;;;;;24.55;13.07;;;;;;;17.08;49.08;100202.09;4460168;32;20154;-84
2022/10/17 08:16:29;;;;;;;26.98;14.38;;;;;;;17.49;48.17;100206.75;4459742;32;20129;-83
2022/10/17 08:18:55;;;;;;;21.50;12.63;;;;;;;17.23;48.24;100200.31;4466955;32;20123;-82
2022/10/17 08:21:21;;;;;;;24.77;12.88;;;;;;;17.53;48.05;100204.78;4465692;32;20161;-83
2022/10/17 08:23:46;;;;;;;23.27;13.15;;;;;;;17.64;48.18;100204.97;4453564;32;20121;-84
2022/10/17 08:26:12;;;;;;;23.85;12.75;;;;;;;17.66;48.09;100203.06;4451360;32;21246;-83
2022/10/17 08:28:38;;;;;;;23.77;13.68;;;;;;;17.82;47.27;100197.63;4453222;32;20088;-83
2022/10/17 08:31:13;;;;;;;26.17;13.20;;;;;;;17.86;47.07;100199.19;4453934;32;20171;-82
2022/10/17 08:33:39;;;;;;;26.58;13.73;;;;;;;17.09;48.57;100211.78;4464338;32;20093;-82
2022/10/17 08:36:05;;;;;;;22.05;12.80;;;;;;;17.04;48.51;100205.91;4459545;32;20560;-83
2022/10/17 08:38:32;;;;;;;25.02;12.85;;;;;;;17.55;47.34;100203.72;4457460;32;20073;-83
2022/10/17 08:41:00;;;;;;;24.80;13.50;;;;;;;17.73;47.34;100212.41;4465322;32;20377;-82
2022/10/17 08:43:31;;;;;;;23.77;13.70;;;;;;;17.82;47.03;100197.63;4455496;32;20136;-82
2022/10/17 08:46:01;;;;;;;22.15;12.73;;;;;;;17.85;47.06;100206.34;4463102;32;20766;-83
2022/10/17 08:48:30;;;;;;;24.95;13.25;;;;;;;18.00;46.56;100203.66;4461512;32;20092;-83
2022/10/17 08:51:26;;;;;;;23.60;13.38;;;;;;;18.11;46.33;100211.84;4455010;32;20116;-83
2022/10/17 08:54:21;;;;;;;25.73;13.52;;;;;;;18.19;46.25;100209.53;4458761;32;20369;-83
2022/10/17 08:56:52;;;;;;;24.92;14.15;;;;;;;18.19;46.26;100203.34;4461377;32;20877;-83
2022/10/17 08:59:22;;;;;;;24.10;13.35;;;;;;;17.86;46.79;100210.72;4454518;32;20088;-82
2022/10/17 09:01:50;;;;;;;24.15;14.43;;;;;;;18.07;47.04;100205.84;4461421;32;20139;-83
2022/10/17 09:04:40;;;;;;;26.60;13.88;;;;;;;18.01;46.81;100211.56;4461651;32;20132;-81
2022/10/17 09:07:27;;;;;;;25.20;14.93;;;;;;;18.27;46.45;100203.72;4454429;32;20093;-82
2022/10/17 09:10:14;;;;;;;22.33;12.93;;;;;;;18.13;46.42;100206.41;4462131;32;20111;-82
2022/10/17 09:12:45;;;;;;;25.05;14.38;;;;;;;18.34;46.41;100205.03;4463407;32;20478;-82
2022/10/17 09:15:30;;;;;;;23.38;12.43;;;;;;;18.44;46.53;100200.81;4454705;32;20161;-83
2022/10/17 09:18:21;;;;;;;29.10;13.80;;;;;;;18.46;46.47;100209.56;4462046;32;20054;-83
2022/10/17 09:20:51;;;;;;;24.23;13.13;;;;;;;18.52;45.90;100205.66;4464723;32;20143;-83
2022/10/17 09:23:26;;;;;;;24.10;12.65;;;;;;;17.94;46.94;100206.72;4455127;32;20101;-82
2022/10/17 09:25:57;;;;;;;27.08;13.43;;;;;;;18.45;46.27;100201.69;4462712;32;20112;-82
2022/10/17 09:28:38;;;;;;;24.33;13.27;;;;;;;18.63;45.32;100210.31;4462444;32;20168;-83
2022/10/17 09:31:04;;;;;;;26.95;13.75;;;;;;;18.75;44.73;100203.31;4455474;32;20103;-83
2022/10/17 09:33:41;;;;;;;27.33;13.25;;;;;;;18.75;44.69;100205.97;4464274;32;20093;-81
2022/10/17 09:36:19;;;;;;;25.75;12.75;;;;;;;18.78;44.72;100206.63;4459936;32;20101;-82
2022/10/17 09:38:51;;;;;;;20.77;12.27;;;;;;;18.83;44.96;100206.34;4455935;32;20093;-82
2022/10/17 09:41:23;;;;;;;22.10;12.55;;;;;;;19.02;44.08;100208.66;4466255;32;20077;-82
2022/10/17 09:43:51;;;;;;;22.27;12.93;;;;;;;18.95;44.13;100204.69;4457924;32;20101;-82
2022/10/17 09:46:24;;;;;;;25.88;12.98;;;;;;;18.93;44.41;100198.59;4458793;32;20120;-82
2022/10/17 09:48:59;;;;;;;24.80;12.77;;;;;;;19.02;44.76;100208.66;4465679;32;20175;-82
2022/10/17 09:51:25;;;;;;;19.58;10.20;;;;;;;19.19;43.81;100204.84;4455185;32;20477;-83
2022/10/17 09:53:55;;;;;;;19.48;10.73;;;;;;;19.20;42.62;100196.75;4462616;32;20090;-83
2022/10/17 09:56:21;;;;;;;20.65;10.30;;;;;;;19.10;43.07;100200.97;4459995;32;20101;-82
2022/10/17 09:58:48;;;;;;;19.48;9.45;;;;;;;19.08;43.22;100205.56;4454974;32;20174;-83
2022/10/17 10:01:18;;;;;;;;;;;;;;;19.23;42.74;100199.19;4465333;32;20448;-81
2022/10/17 10:03:44;;;;;;;17.15;9.27;;;;;;;19.37;41.85;100200.06;4456980;32;20051;-82
2022/10/17 10:06:16;;;;;;;17.48;8.05;;;;;;;19.35;42.18;100200.16;4459187;32;20105;-82
2022/10/17 10:08:57;;;;;;;14.75;7.18;;;;;;;19.34;41.32;100197.63;4463135;32;20461;-81
2022/10/17 10:11:49;;;;;;;16.87;7.00;;;;;;;19.41;40.95;100196.22;4456170;32;20143;-82
2022/10/17 10:14:24;;;;;;;12.55;6.18;;;;;;;19.39;40.82;100200.81;4458785;32;20124;-82
2022/10/17 10:16:52;;;;;;;13.80;5.90;;;;;;;19.47;40.47;100189.59;4463452;32;20136;-83
2022/10/17 10:19:31;;;;;;;15.07;5.55;;;;;;;19.45;40.12;100195.91;4454426;32;20484;-82
2022/10/17 10:22:01;;;;;;;14.95;6.78;;;;;;;19.56;40.61;100183.63;4462087;32;20441;-83
2022/10/17 10:24:27;;;;;;;14.45;6.47;;;;;;;19.62;40.39;100188.53;4461029;32;20119;-82
2022/10/17 10:26:55;;;;;;;14.90;6.45;;;;;;;19.56;40.45;100179.13;4454105;32;20542;-82
2022/10/17 10:29:37;;;;;;;;;;;;;;;19.58;40.89;100187.03;4464881;32;20089;-83
2022/10/17 10:32:21;;;;;;;12.18;5.05;;;;;;;19.22;42.22;100185.97;4460474;32;19977;-82
2022/10/17 10:34:53;;;;;;;12.98;5.10;;;;;;;19.78;40.00;100182.97;4463506;32;20592;-83
2022/10/17 10:37:25;;;;;;;13.07;5.53;;;;;;;19.83;40.04;100186.19;4453878;32;20168;-82
2022/10/17 10:39:56;;;;;;;14.45;5.72;;;;;;;19.68;39.91;100187.25;4461327;32;20085;-83
2022/10/17 10:42:32;;;;;;;12.98;5.20;;;;;;;19.93;39.58;100184.56;4460528;32;20149;-83
2022/10/17 10:45:22;;;;;;;11.88;4.82;;;;;;;19.88;40.02;100181.38;4453210;32;20501;-82
2022/10/17 10:47:53;;;;;;;11.55;5.45;;;;;;;19.89;39.53;100174.22;4462047;32;20118;-83
2022/10/17 10:50:24;;;;;;;11.85;4.50;;;;;;;19.64;40.71;100183.94;4460123;32;20183;-82
2022/10/17 10:53:27;;;;;;;13.38;5.10;;;;;;;19.97;39.17;100185.22;4455951;32;20445;-82
2022/10/17 10:55:59;;;;;;;12.98;4.85;;;;;;;20.06;39.21;100179.22;4459205;32;20097;-81
2022/10/17 10:58:33;;;;;;;11.88;5.10;;;;;;;20.17;38.94;100179.28;4458263;32;20125;-80
2022/10/17 11:01:04;;;;;;;12.80;5.50;;;;;;;20.13;39.22;100175.13;4464600;32;20077;-80
2022/10/17 11:03:40;;;;;;;13.52;5.40;;;;;;;20.09;39.81;100176.31;4456758;32;20477;-81
2022/10/17 11:06:17;;;;;;;11.25;4.80;;;;;;;20.32;39.03;100173.78;4459802;32;20453;-80
2022/10/17 11:08:59;;;;;;;13.00;4.87;;;;;;;20.35;38.71;100176.25;4464134;32;20135;-80
2022/10/17 11:11:37;;;;;;;12.37;4.47;;;;;;;20.31;38.27;100180.97;4455212;32;20089;-80
2022/10/17 11:14:17;;;;;;;12.73;4.37;;;;;;;19.95;38.92;100181.78;4448930;32;20123;-80
2022/10/17 11:16:45;;;;;;;11.70;4.53;;;;;;;20.36;37.80;100175.28;4465270;32;20142;-78
2022/10/17 11:19:20;;;;;;;11.80;4.70;;;;;;;20.00;39.05;100175.16;4455799;32;20127;-80
2022/10/17 11:22:08;;;;;;;11.30;4.57;;;;;;;20.27;38.39;100173.28;4463102;32;20119;-80
2022/10/17 11:24:42;;;;;;;13.45;4.32;;;;;;;20.42;38.18;100172.16;4468319;32;20425;-79
2022/10/17 11:27:08;;;;;;;9.23;4.03;;;;;;;20.25;38.25;100169.88;4457218;32;20445;-80
2022/10/17 11:29:39;;;;;;;11.80;4.53;;;;;;;20.35;38.29;100163.72;4464365;32;20113;-80